FHY302 EDDG-EDLP
Flight info
| Callsign | FHY302 |
|---|---|
| Flight time | 0h 19m |
| Altitude | 13000 |
| Route | DOMEG1W DOMEG DCT EXOBA EXOBA3H |
| Aircraft | A320/M-SDE3FGHIRWY/LB1 |
Departure
| Time | 2026-05-03 22:56 |
|---|---|
| Airport | Münster Osnabrück Airport (EDDG) |
Arrival
| Time | 2026-05-03 23:16 |
|---|---|
| Airport | Paderborn Lippstadt Airport (EDLP) |
| Time | Latitude | Longitude | Altitude | Speed | Heading |
|---|---|---|---|---|---|
| 2026-05-03 22:25 | 52.13201 | 7.69539 | 168 ft | 0 kts | 198° |
| 2026-05-03 22:45 | 52.13215 | 7.69546 | 168 ft | 3 kts | 193° |
| 2026-05-03 22:46 | 52.13228 | 7.69551 | 168 ft | 3 kts | 189° |
| 2026-05-03 22:46 | 52.13254 | 7.69556 | 168 ft | 3 kts | 188° |
| 2026-05-03 22:46 | 52.13273 | 7.69563 | 168 ft | 3 kts | 220° |
| 2026-05-03 22:46 | 52.13279 | 7.69574 | 168 ft | 0 kts | 251° |
| 2026-05-03 22:50 | 52.13279 | 7.69571 | 168 ft | 0 kts | 251° |
| 2026-05-03 22:50 | 52.13277 | 7.69564 | 168 ft | 0 kts | 251° |
| 2026-05-03 22:51 | 52.13276 | 7.69559 | 168 ft | 3 kts | 251° |
| 2026-05-03 22:52 | 52.13258 | 7.69473 | 168 ft | 11 kts | 251° |
| 2026-05-03 22:52 | 52.13251 | 7.69339 | 168 ft | 14 kts | 303° |
| 2026-05-03 22:52 | 52.13324 | 7.69279 | 168 ft | 10 kts | 340° |
| 2026-05-03 22:52 | 52.13391 | 7.69241 | 168 ft | 10 kts | 341° |
| 2026-05-03 22:53 | 52.13457 | 7.69286 | 168 ft | 14 kts | 59° |
| 2026-05-03 22:53 | 52.13491 | 7.69430 | 168 ft | 14 kts | 70° |
| 2026-05-03 22:53 | 52.13523 | 7.69575 | 168 ft | 14 kts | 70° |
| 2026-05-03 22:53 | 52.13555 | 7.69721 | 168 ft | 14 kts | 71° |
| 2026-05-03 22:54 | 52.13584 | 7.69866 | 168 ft | 14 kts | 72° |
| 2026-05-03 22:54 | 52.13619 | 7.69992 | 168 ft | 10 kts | 57° |
| 2026-05-03 22:54 | 52.13683 | 7.70027 | 168 ft | 10 kts | 356° |
| 2026-05-03 22:54 | 52.13753 | 7.69996 | 168 ft | 12 kts | 318° |
| 2026-05-03 22:55 | 52.13760 | 7.69900 | 168 ft | 0 kts | 251° |
| 2026-05-03 22:56 | 52.13758 | 7.69889 | 168 ft | 6 kts | 251° |
| 2026-05-03 22:56 | 52.13672 | 7.69465 | 170 ft | 85 kts | 250° |
| 2026-05-03 22:56 | 52.13389 | 7.68145 | 291 ft | 149 kts | 250° |
| 2026-05-03 22:56 | 52.13050 | 7.66490 | 1054 ft | 159 kts | 249° |
| 2026-05-03 22:57 | 52.12681 | 7.64741 | 1984 ft | 168 kts | 248° |
| 2026-05-03 22:57 | 52.12278 | 7.62863 | 2692 ft | 189 kts | 248° |
| 2026-05-03 22:57 | 52.11816 | 7.60710 | 3326 ft | 215 kts | 248° |
| 2026-05-03 22:57 | 52.11291 | 7.58274 | 4091 ft | 241 kts | 248° |
| 2026-05-03 22:58 | 52.10593 | 7.55725 | 5208 ft | 250 kts | 235° |
| 2026-05-03 22:58 | 52.09415 | 7.53646 | 6512 ft | 252 kts | 217° |
| 2026-05-03 22:58 | 52.07852 | 7.52334 | 7745 ft | 257 kts | 198° |
| 2026-05-03 22:58 | 52.06061 | 7.51881 | 8965 ft | 264 kts | 188° |
| 2026-05-03 22:59 | 52.04220 | 7.51588 | 10151 ft | 269 kts | 188° |
| 2026-05-03 22:59 | 52.02285 | 7.51818 | 10766 ft | 301 kts | 166° |
| 2026-05-03 22:59 | 52.00451 | 7.53678 | 11601 ft | 325 kts | 137° |
| 2026-05-03 22:59 | 51.99196 | 7.56821 | 12479 ft | 338 kts | 122° |
| 2026-05-03 23:00 | 51.98132 | 7.60241 | 12809 ft | 340 kts | 119° |
| 2026-05-03 23:00 | 51.97137 | 7.63716 | 12920 ft | 336 kts | 118° |
| 2026-05-03 23:00 | 51.96209 | 7.67077 | 12947 ft | 319 kts | 118° |
| 2026-05-03 23:00 | 51.95303 | 7.70332 | 12943 ft | 315 kts | 118° |
| 2026-05-03 23:01 | 51.94385 | 7.73553 | 12950 ft | 314 kts | 119° |
| 2026-05-03 23:01 | 51.93454 | 7.76755 | 12952 ft | 313 kts | 119° |
| 2026-05-03 23:01 | 51.92518 | 7.79933 | 12951 ft | 313 kts | 120° |
| 2026-05-03 23:01 | 51.91576 | 7.83112 | 12951 ft | 313 kts | 120° |
| 2026-05-03 23:02 | 51.90646 | 7.86243 | 12954 ft | 313 kts | 120° |
| 2026-05-03 23:02 | 51.89699 | 7.89421 | 12942 ft | 313 kts | 120° |
| 2026-05-03 23:02 | 51.88753 | 7.92596 | 12945 ft | 313 kts | 120° |
| 2026-05-03 23:02 | 51.87812 | 7.95763 | 12956 ft | 313 kts | 120° |
| 2026-05-03 23:03 | 51.86863 | 7.98956 | 12947 ft | 314 kts | 120° |
| 2026-05-03 23:03 | 51.85917 | 8.02128 | 12963 ft | 314 kts | 120° |
| 2026-05-03 23:03 | 51.84966 | 8.05310 | 12964 ft | 314 kts | 120° |
| 2026-05-03 23:03 | 51.84011 | 8.08495 | 12970 ft | 314 kts | 120° |
| 2026-05-03 23:04 | 51.83059 | 8.11669 | 12775 ft | 312 kts | 120° |
| 2026-05-03 23:04 | 51.82120 | 8.14812 | 12507 ft | 307 kts | 120° |
| 2026-05-03 23:04 | 51.81209 | 8.17857 | 12136 ft | 304 kts | 120° |
| 2026-05-03 23:04 | 51.80288 | 8.20922 | 11720 ft | 302 kts | 120° |
| 2026-05-03 23:05 | 51.79368 | 8.23974 | 11296 ft | 302 kts | 120° |
| 2026-05-03 23:05 | 51.78451 | 8.27012 | 10864 ft | 301 kts | 120° |
| 2026-05-03 23:05 | 51.77536 | 8.30044 | 10432 ft | 300 kts | 120° |
| 2026-05-03 23:05 | 51.76570 | 8.33012 | 10011 ft | 296 kts | 127° |
| 2026-05-03 23:06 | 51.75363 | 8.35681 | 9519 ft | 293 kts | 131° |
| 2026-05-03 23:06 | 51.74152 | 8.38308 | 9082 ft | 290 kts | 131° |
| 2026-05-03 23:06 | 51.72969 | 8.40880 | 8623 ft | 288 kts | 131° |
| 2026-05-03 23:06 | 51.71779 | 8.43467 | 8172 ft | 286 kts | 131° |
| 2026-05-03 23:07 | 51.70601 | 8.46029 | 7702 ft | 284 kts | 131° |
| 2026-05-03 23:07 | 51.69611 | 8.48788 | 7233 ft | 288 kts | 114° |
| 2026-05-03 23:07 | 51.69330 | 8.51989 | 6772 ft | 294 kts | 88° |
| 2026-05-03 23:07 | 51.69812 | 8.55193 | 6329 ft | 294 kts | 74° |
| 2026-05-03 23:08 | 51.70710 | 8.58137 | 5909 ft | 292 kts | 61° |
| 2026-05-03 23:08 | 51.71691 | 8.60980 | 5447 ft | 289 kts | 64° |
| 2026-05-03 23:08 | 51.72626 | 8.63790 | 4981 ft | 286 kts | 64° |
| 2026-05-03 23:08 | 51.73561 | 8.66604 | 4534 ft | 283 kts | 64° |
| 2026-05-03 23:09 | 51.74477 | 8.69379 | 4236 ft | 274 kts | 64° |
| 2026-05-03 23:09 | 51.75350 | 8.72016 | 4105 ft | 259 kts | 64° |
| 2026-05-03 23:09 | 51.76178 | 8.74514 | 3982 ft | 246 kts | 64° |
| 2026-05-03 23:09 | 51.76797 | 8.76998 | 3812 ft | 233 kts | 83° |
| 2026-05-03 23:10 | 51.76762 | 8.79541 | 3556 ft | 223 kts | 108° |
| 2026-05-03 23:10 | 51.76122 | 8.81701 | 3442 ft | 208 kts | 131° |
| 2026-05-03 23:10 | 51.75097 | 8.83212 | 3233 ft | 199 kts | 150° |
| 2026-05-03 23:10 | 51.73843 | 8.84072 | 3048 ft | 196 kts | 169° |
| 2026-05-03 23:11 | 51.72766 | 8.84255 | 3040 ft | 193 kts | 183° |
| 2026-05-03 23:11 | 51.71443 | 8.83864 | 3018 ft | 193 kts | 200° |
| 2026-05-03 23:11 | 51.70276 | 8.82834 | 3010 ft | 188 kts | 217° |
| 2026-05-03 23:11 | 51.69406 | 8.81338 | 3030 ft | 181 kts | 233° |
| 2026-05-03 23:12 | 51.68750 | 8.79721 | 2971 ft | 166 kts | 234° |
| 2026-05-03 23:12 | 51.68130 | 8.78186 | 2804 ft | 161 kts | 234° |
| 2026-05-03 23:12 | 51.67522 | 8.76684 | 2629 ft | 159 kts | 235° |
| 2026-05-03 23:12 | 51.66934 | 8.75232 | 2429 ft | 149 kts | 234° |
| 2026-05-03 23:13 | 51.66400 | 8.73912 | 2261 ft | 135 kts | 235° |
| 2026-05-03 23:13 | 51.65905 | 8.72694 | 2080 ft | 127 kts | 234° |
| 2026-05-03 23:13 | 51.65426 | 8.71514 | 1914 ft | 125 kts | 235° |
| 2026-05-03 23:13 | 51.64967 | 8.70383 | 1754 ft | 124 kts | 234° |
| 2026-05-03 23:14 | 51.64495 | 8.69221 | 1599 ft | 124 kts | 234° |
| 2026-05-03 23:14 | 51.64026 | 8.68059 | 1447 ft | 123 kts | 236° |
| 2026-05-03 23:14 | 51.63565 | 8.66913 | 1278 ft | 121 kts | 236° |
| 2026-05-03 23:14 | 51.63102 | 8.65777 | 1134 ft | 121 kts | 235° |
| 2026-05-03 23:15 | 51.62640 | 8.64641 | 988 ft | 122 kts | 235° |
| 2026-05-03 23:15 | 51.62176 | 8.63509 | 817 ft | 120 kts | 235° |
| 2026-05-03 23:15 | 51.61723 | 8.62413 | 688 ft | 110 kts | 236° |
| 2026-05-03 23:15 | 51.61395 | 8.61610 | 711 ft | 61 kts | 237° |
| 2026-05-03 23:16 | 51.61218 | 8.61170 | 716 ft | 25 kts | 237° |
| 2026-05-03 23:16 | 51.61110 | 8.61055 | 718 ft | 18 kts | 207° |
| 2026-05-03 23:16 | 51.61017 | 8.61044 | 722 ft | 13 kts | 132° |
| 2026-05-03 23:16 | 51.60979 | 8.61182 | 723 ft | 13 kts | 102° |
| 2026-05-03 23:17 | 51.60960 | 8.61326 | 731 ft | 11 kts | 96° |
| 2026-05-03 23:17 | 51.60982 | 8.61429 | 731 ft | 10 kts | 57° |
| 2026-05-03 23:17 | 51.61020 | 8.61524 | 731 ft | 10 kts | 57° |
| 2026-05-03 23:17 | 51.61058 | 8.61619 | 731 ft | 11 kts | 57° |
| 2026-05-03 23:18 | 51.61099 | 8.61719 | 731 ft | 11 kts | 56° |
| 2026-05-03 23:18 | 51.61141 | 8.61820 | 731 ft | 11 kts | 56° |
| 2026-05-03 23:18 | 51.61184 | 8.61923 | 731 ft | 11 kts | 56° |
| 2026-05-03 23:18 | 51.61215 | 8.62002 | 731 ft | 7 kts | 69° |
| 2026-05-03 23:19 | 51.61215 | 8.62014 | 731 ft | 1 kts | 91° |
| 2026-05-03 23:19 | 51.61210 | 8.62037 | 731 ft | 3 kts | 114° |
| 2026-05-03 23:19 | 51.61197 | 8.62057 | 730 ft | 3 kts | 140° |
| 2026-05-03 23:19 | 51.61181 | 8.62076 | 731 ft | 3 kts | 144° |
| 2026-05-03 23:20 | 51.61173 | 8.62085 | 731 ft | 0 kts | 145° |